M/V Tuna — XUGC9 — position and weather

sailwx.info

Track history (hours):
 
Tides and Currents Weather Stations Pressure Air Temp Water Temp Dewpoint Dewpoint Depression Visibility Wind Speed Wind Dir Waves Ship Positions

M/V Tuna

Last reported at 2014-Sep-03 12:19 UTC. Time now 2014-Sep-22 20:21 UTC.
Position N 40°59' E 029°00'.
Warning: this ship's position is 19 days out of date.

Length 114 m; draft 2.2 m.

Type: Ship (hazmat cat A). MMSI: 514778000.

Date/timePositionNaut miles runAvg speedWind from/ knotsBaromVisibWave heightAir tempDewpointWater temp
2014-Sep-03 12:19N 40°59' E 029°00'11 3.4
2014-Sep-03 09:09N 40°52' E 029°11'0 0.0
2014-Sep-03 08:33N 40°52' E 029°11'0 0.0
2014-Sep-03 07:33N 40°52' E 029°11'0 0.0
2014-Sep-03 06:33N 40°52' E 029°11'0 0.0
2014-Sep-03 05:32N 40°52' E 029°11'0 0.0
2014-Sep-03 04:25N 40°52' E 029°11'0 0.0
2014-Sep-03 03:31N 40°52' E 029°11'0 0.0
2014-Sep-03 02:31N 40°52' E 029°11'0 0.1
2014-Sep-03 01:33N 40°52' E 029°11'7 6.6
2014-Sep-03 00:33N 40°47' E 029°16'7 7.0
2014-Sep-02 23:31N 40°45' E 029°25'3 0.1
2014-Sep-01 12:33N 40°45' E 029°29'2 0.1
2014-Aug-31 20:31N 40°46' E 029°26'0 0.0
2014-Aug-31 18:13N 40°46' E 029°26'0 0.0
2014-Aug-31 14:18N 40°46' E 029°26'0 0.0
2014-Aug-31 11:13N 40°46' E 029°26'1 0.9
2014-Aug-31 10:30N 40°45' E 029°26'5 5.6
2014-Aug-31 09:33N 40°45' E 029°19'7 6.8
2014-Aug-31 08:34N 40°48' E 029°11'7 6.7
2014-Aug-31 07:33N 40°50' E 029°02'6 6.1
2014-Aug-31 06:33N 40°54' E 028°57'4 3.5
2014-Aug-31 05:28N 40°58' E 028°56'0 0.0
2014-Aug-31 04:22N 40°58' E 028°56'0 0.3
2014-Aug-31 03:33N 40°58' E 028°56'  
2014-Aug-27 04:32N 46°05' E 030°28'  
Track history (hours):
 
Tides and Currents Weather Stations Pressure Air Temp Water Temp Dewpoint Dewpoint Depression Visibility Wind Speed Wind Dir Waves Ship Positions

M/V Tuna

Last reported at 2014-Sep-03 12:19 UTC. Time now 2014-Sep-22 20:21 UTC.
Position N 40°59' E 029°00'.
Warning: this ship's position is 19 days out of date.

Length 114 m; draft 2.2 m.

Type: Ship (hazmat cat A). MMSI: 514778000.

Date/timePositionNaut miles runAvg speedWind from/ knotsBaromVisibWave heightAir tempDewpointWater temp
2014-Sep-03 12:19N 40°59' E 029°00'11 3.4
2014-Sep-03 09:09N 40°52' E 029°11'0 0.0
2014-Sep-03 08:33N 40°52' E 029°11'0 0.0
2014-Sep-03 07:33N 40°52' E 029°11'0 0.0
2014-Sep-03 06:33N 40°52' E 029°11'0 0.0
2014-Sep-03 05:32N 40°52' E 029°11'0 0.0
2014-Sep-03 04:25N 40°52' E 029°11'0 0.0
2014-Sep-03 03:31N 40°52' E 029°11'0 0.0
2014-Sep-03 02:31N 40°52' E 029°11'0 0.1
2014-Sep-03 01:33N 40°52' E 029°11'7 6.6
2014-Sep-03 00:33N 40°47' E 029°16'7 7.0
2014-Sep-02 23:31N 40°45' E 029°25'3 0.1
2014-Sep-01 12:33N 40°45' E 029°29'2 0.1
2014-Aug-31 20:31N 40°46' E 029°26'0 0.0
2014-Aug-31 18:13N 40°46' E 029°26'0 0.0
2014-Aug-31 14:18N 40°46' E 029°26'0 0.0
2014-Aug-31 11:13N 40°46' E 029°26'1 0.9
2014-Aug-31 10:30N 40°45' E 029°26'5 5.6
2014-Aug-31 09:33N 40°45' E 029°19'7 6.8
2014-Aug-31 08:34N 40°48' E 029°11'7 6.7
2014-Aug-31 07:33N 40°50' E 029°02'6 6.1
2014-Aug-31 06:33N 40°54' E 028°57'4 3.5
2014-Aug-31 05:28N 40°58' E 028°56'0 0.0
2014-Aug-31 04:22N 40°58' E 028°56'0 0.3
2014-Aug-31 03:33N 40°58' E 028°56'  
2014-Aug-27 04:32N 46°05' E 030°28'  

Dump ship's entire track history